createdAt,value
2022-12-11T00:00:29.590Z,86.26
2022-12-11T00:02:51.994Z,85.60
2022-12-11T00:05:14.417Z,85.22
2022-12-11T00:07:36.715Z,85.86
2022-12-11T00:09:59.049Z,85.64
2022-12-11T00:12:21.379Z,84.94
2022-12-11T00:14:43.714Z,85.42
2022-12-11T00:17:06.215Z,84.40
2022-12-11T00:19:28.642Z,84.15
2022-12-11T00:21:50.979Z,84.11
2022-12-11T00:24:13.322Z,84.33
2022-12-11T00:26:35.671Z,83.24
2022-12-11T00:28:58.043Z,83.16
2022-12-11T00:31:20.676Z,82.82
2022-12-11T00:33:44.293Z,83.06
2022-12-11T00:36:24.449Z,82.81
2022-12-11T00:38:46.970Z,83.64
2022-12-11T00:41:09.409Z,82.80
2022-12-11T00:43:31.770Z,83.19
2022-12-11T00:45:54.129Z,83.11
2022-12-11T00:48:16.536Z,82.89
2022-12-11T00:50:39.038Z,83.11
2022-12-11T00:53:01.939Z,83.48
2022-12-11T00:55:25.474Z,82.22
2022-12-11T00:57:47.795Z,83.40
2022-12-11T01:00:11.521Z,83.40
2022-12-11T01:02:34.434Z,83.16
2022-12-11T01:04:56.883Z,82.63
2022-12-11T01:07:19.163Z,82.86
2022-12-11T01:10:00.040Z,82.44
2022-12-11T01:12:22.353Z,82.69
2022-12-11T01:14:44.685Z,82.08
2022-12-11T01:17:07.025Z,82.92
2022-12-11T01:19:29.351Z,82.58
2022-12-11T01:21:51.647Z,82.06
2022-12-11T01:24:13.971Z,82.10
2022-12-11T01:26:36.296Z,82.45
2022-12-11T01:28:58.736Z,82.70
2022-12-11T01:31:22.339Z,82.81
2022-12-11T01:33:44.728Z,83.39
2022-12-11T01:36:15.151Z,83.27
2022-12-11T01:38:37.545Z,83.46
2022-12-11T01:40:59.856Z,83.11
2022-12-11T01:43:22.230Z,83.37
2022-12-11T01:45:47.787Z,83.94
2022-12-11T01:48:42.075Z,83.70
2022-12-11T01:51:05.556Z,84.19
2022-12-11T01:53:35.510Z,83.53
2022-12-11T01:55:58.218Z,84.17
2022-12-11T01:58:21.386Z,83.81
2022-12-11T02:00:43.611Z,83.77
2022-12-11T02:03:05.942Z,84.19
2022-12-11T02:05:28.261Z,84.84
2022-12-11T02:07:54.454Z,83.64
2022-12-11T02:10:16.854Z,84.53
2022-12-11T02:12:51.376Z,83.87
2022-12-11T02:15:19.449Z,83.75
2022-12-11T02:18:02.668Z,83.17
2022-12-11T02:20:33.636Z,82.99
2022-12-11T02:23:22.802Z,83.29
2022-12-11T02:26:12.564Z,83.76
2022-12-11T02:28:46.334Z,83.98
2022-12-11T02:31:25.594Z,83.67
2022-12-11T02:34:20.490Z,83.07
2022-12-11T02:36:46.650Z,83.74
2022-12-11T02:39:12.496Z,82.79
2022-12-11T02:41:34.893Z,83.24
2022-12-11T02:43:57.549Z,83.04
2022-12-11T02:46:20.394Z,82.83
2022-12-11T02:48:46.242Z,83.38
2022-12-11T02:51:08.737Z,83.35
2022-12-11T02:53:34.581Z,83.54
2022-12-11T02:56:09.533Z,84.22
2022-12-11T02:58:43.946Z,84.09
2022-12-11T03:04:12.765Z,84.77
2022-12-11T03:06:43.399Z,84.67
2022-12-11T03:09:05.876Z,85.68
2022-12-11T03:11:28.225Z,84.71
2022-12-11T03:13:51.773Z,85.33
2022-12-11T03:16:40.751Z,85.22
2022-12-11T03:19:37.450Z,85.91
2022-12-11T03:22:10.321Z,86.05
2022-12-11T03:24:50.763Z,86.12
2022-12-11T03:27:26.045Z,85.46
2022-12-11T03:30:16.692Z,85.68
2022-12-11T03:32:46.104Z,85.74
2022-12-11T03:35:40.525Z,86.11
2022-12-11T03:38:52.748Z,85.99
2022-12-11T03:41:15.575Z,86.93
2022-12-11T03:43:37.920Z,86.48
2022-12-11T03:46:00.322Z,86.67
2022-12-11T03:48:22.684Z,87.32
2022-12-11T03:50:45.028Z,86.72
2022-12-11T03:53:07.513Z,86.91
2022-12-11T03:55:29.960Z,86.42
2022-12-11T03:57:52.305Z,86.56
2022-12-11T04:00:18.034Z,86.28
2022-12-11T04:02:41.510Z,86.34
2022-12-11T04:05:04.013Z,86.51
2022-12-11T04:07:26.329Z,86.88
2022-12-11T04:09:48.657Z,86.72
2022-12-11T04:12:10.957Z,86.52
2022-12-11T04:14:52.026Z,86.41
2022-12-11T04:17:34.289Z,86.64
2022-12-11T04:20:15.275Z,87.26
2022-12-11T04:22:56.198Z,87.77
2022-12-11T04:25:18.616Z,87.25
2022-12-11T04:27:50.034Z,87.57
2022-12-11T04:30:16.811Z,88.20
2022-12-11T04:32:39.112Z,88.20
2022-12-11T04:35:01.476Z,87.86
2022-12-11T04:37:23.818Z,88.40
2022-12-11T04:39:46.100Z,87.41
2022-12-11T04:42:08.438Z,87.59
2022-12-11T04:44:30.756Z,87.48
2022-12-11T04:46:53.134Z,86.57
2022-12-11T04:49:15.565Z,85.62
2022-12-11T04:51:37.874Z,86.04
2022-12-11T04:54:00.209Z,85.36
2022-12-11T04:56:22.610Z,85.07
2022-12-11T04:58:45.081Z,85.66
2022-12-11T05:01:19.591Z,84.67
2022-12-11T05:03:42.053Z,85.36
2022-12-11T05:06:04.579Z,84.96
2022-12-11T05:08:26.907Z,84.75
2022-12-11T05:11:00.174Z,84.63
2022-12-11T05:13:22.488Z,84.26
2022-12-11T05:15:44.859Z,85.49
2022-12-11T05:18:07.217Z,85.02
2022-12-11T05:20:29.594Z,84.59
2022-12-11T05:22:51.896Z,84.65
2022-12-11T05:25:14.300Z,85.09
2022-12-11T05:27:38.181Z,85.32
2022-12-11T05:30:00.514Z,85.24
2022-12-11T05:32:22.910Z,85.29
2022-12-11T05:34:45.248Z,84.43
2022-12-11T05:37:07.614Z,85.01
2022-12-11T05:39:29.972Z,85.85
2022-12-11T05:41:52.328Z,85.09
2022-12-11T05:44:14.692Z,85.45
2022-12-11T05:46:37.013Z,85.68
2022-12-11T05:49:01.053Z,86.17
2022-12-11T05:51:23.668Z,86.24
2022-12-11T05:53:47.628Z,86.06
2022-12-11T05:56:30.539Z,86.61
2022-12-11T05:58:53.224Z,86.93
2022-12-11T06:01:30.229Z,87.19
2022-12-11T06:03:53.878Z,87.34
2022-12-11T06:06:16.264Z,87.22
2022-12-11T06:08:38.864Z,86.78
2022-12-11T06:11:01.273Z,86.77
2022-12-11T06:13:23.656Z,87.00
2022-12-11T06:15:45.968Z,87.07
2022-12-11T06:18:08.783Z,87.46
2022-12-11T06:20:34.855Z,87.40
2022-12-11T06:22:57.197Z,87.45
2022-12-11T06:25:19.528Z,87.53
2022-12-11T06:27:41.834Z,87.78
2022-12-11T06:30:04.656Z,87.63
2022-12-11T06:32:27.268Z,87.46
2022-12-11T06:34:49.598Z,87.70
2022-12-11T06:37:12.228Z,87.28
2022-12-11T06:39:34.512Z,87.29
2022-12-11T06:41:56.873Z,86.78
2022-12-11T06:44:19.222Z,86.42
2022-12-11T06:46:41.542Z,86.47
2022-12-11T06:49:03.889Z,85.97
2022-12-11T06:51:26.404Z,86.01
2022-12-11T06:53:53.540Z,86.04
2022-12-11T06:56:15.919Z,86.18
2022-12-11T06:58:38.475Z,85.82
2022-12-11T07:01:00.858Z,85.27
2022-12-11T07:03:23.305Z,85.74
2022-12-11T07:05:45.640Z,85.66
2022-12-11T07:08:08.019Z,85.41
2022-12-11T07:10:30.372Z,85.30
2022-12-11T07:12:55.786Z,85.76
2022-12-11T07:15:18.155Z,85.96
2022-12-11T07:17:40.488Z,85.89
2022-12-11T07:20:02.888Z,86.31
2022-12-11T07:22:25.230Z,86.51
2022-12-11T07:24:47.549Z,85.96
2022-12-11T07:27:09.896Z,86.44
2022-12-11T07:29:32.369Z,86.72
2022-12-11T07:31:54.811Z,86.90
2022-12-11T07:34:17.198Z,87.36
2022-12-11T07:36:39.531Z,87.59
2022-12-11T07:39:02.019Z,87.59
2022-12-11T07:41:24.503Z,87.02
2022-12-11T07:43:47.164Z,87.62
2022-12-11T07:46:18.843Z,87.91
2022-12-11T07:48:42.243Z,87.31
2022-12-11T07:51:19.343Z,87.53
2022-12-11T07:53:43.077Z,87.75
2022-12-11T07:56:05.903Z,87.92
2022-12-11T07:58:28.278Z,87.78
2022-12-11T08:00:50.692Z,88.44
2022-12-11T08:03:18.081Z,87.89
2022-12-11T08:05:40.573Z,87.96
2022-12-11T08:08:03.062Z,87.75
2022-12-11T08:10:28.827Z,87.71
2022-12-11T08:12:51.483Z,88.01
2022-12-11T08:15:34.632Z,87.87
2022-12-11T08:17:57.837Z,87.54
2022-12-11T08:20:26.515Z,87.91
2022-12-11T08:22:58.825Z,88.58
2022-12-11T08:25:30.945Z,88.74
2022-12-11T08:35:26.039Z,88.29
2022-12-11T08:40:28.043Z,89.09
2022-12-11T08:53:28.641Z,87.87
2022-12-11T08:55:57.964Z,88.00
2022-12-11T09:03:44.082Z,86.85
2022-12-11T09:06:14.558Z,86.73
2022-12-11T09:08:51.677Z,85.97
2022-12-11T09:14:16.530Z,85.28
2022-12-11T09:20:43.626Z,86.44
2022-12-11T09:40:53.278Z,83.40
2022-12-11T09:48:02.802Z,82.74
2022-12-11T09:51:06.888Z,82.57
2022-12-11T09:53:35.360Z,83.00
2022-12-11T09:56:14.085Z,82.62
2022-12-11T10:21:18.358Z,83.59
2022-12-11T10:23:46.501Z,84.34
2022-12-11T10:26:23.459Z,84.44
2022-12-11T10:28:55.574Z,83.68
2022-12-11T10:31:22.854Z,84.73
2022-12-11T10:34:20.485Z,84.26
2022-12-11T10:37:00.429Z,84.74
2022-12-11T10:39:02.924Z,84.56
2022-12-11T10:41:14.181Z,83.85
2022-12-11T10:46:24.937Z,84.18
2022-12-11T10:48:32.392Z,84.35
2022-12-11T10:54:45.601Z,84.20
2022-12-11T10:57:07.129Z,84.30
2022-12-11T10:59:24.139Z,84.45
2022-12-11T11:01:30.828Z,83.97
2022-12-11T11:06:39.729Z,83.82
2022-12-11T11:30:08.413Z,82.71
2022-12-11T11:38:04.422Z,82.38
2022-12-11T11:53:16.847Z,81.88
2022-12-11T11:55:47.482Z,82.72
2022-12-11T11:58:13.946Z,81.83
2022-12-11T12:00:21.783Z,81.68
2022-12-11T12:02:24.271Z,81.91
2022-12-11T12:04:33.144Z,81.66
2022-12-11T12:07:32.083Z,81.52
2022-12-11T12:10:22.967Z,81.13
2022-12-11T12:13:47.729Z,80.10
2022-12-11T12:15:55.542Z,80.36
2022-12-11T12:18:02.813Z,80.47
2022-12-11T12:20:37.757Z,81.70
2022-12-11T12:23:15.093Z,80.89
2022-12-11T12:25:37.360Z,81.15
2022-12-11T12:32:21.229Z,81.65
2022-12-11T12:34:53.776Z,81.27
2022-12-11T12:37:43.896Z,80.78
2022-12-11T12:40:32.527Z,81.21
2022-12-11T12:42:48.648Z,81.77
2022-12-11T12:45:15.084Z,80.93
2022-12-11T12:47:18.014Z,81.67
2022-12-11T12:49:29.423Z,82.04
2022-12-11T12:51:31.819Z,81.14
2022-12-11T12:53:35.157Z,81.52
2022-12-11T12:55:37.573Z,81.77
2022-12-11T12:57:51.473Z,81.54
2022-12-11T12:59:56.754Z,81.84
2022-12-11T13:02:03.163Z,81.90
2022-12-11T13:04:08.663Z,82.14
2022-12-11T13:06:15.720Z,83.10
2022-12-11T13:08:25.000Z,83.46
2022-12-11T13:10:38.391Z,83.13
2022-12-11T13:12:45.795Z,83.73
2022-12-11T13:14:55.784Z,83.66
2022-12-11T13:17:46.706Z,84.00
2022-12-11T13:19:50.453Z,84.16
2022-12-11T13:30:07.782Z,85.24
2022-12-11T13:32:19.266Z,85.40
2022-12-11T13:34:23.352Z,85.10
2022-12-11T13:36:35.487Z,85.55
2022-12-11T13:38:39.102Z,85.84
2022-12-11T13:40:43.032Z,85.56
2022-12-11T13:42:48.842Z,85.75
2022-12-11T13:44:51.389Z,85.62
2022-12-11T13:46:54.679Z,85.42
2022-12-11T13:49:05.012Z,86.35
2022-12-11T13:54:37.759Z,85.74
2022-12-11T14:41:43.883Z,88.22
2022-12-11T18:00:02.079Z,96.55
2022-12-11T18:10:12.180Z,96.48
2022-12-11T18:47:56.561Z,97.55
2022-12-11T20:00:08.786Z,96.67
2022-12-11T20:18:06.631Z,97.30
2022-12-11T20:20:39.147Z,96.87
2022-12-11T20:22:41.451Z,97.32
2022-12-11T20:24:43.616Z,97.03
2022-12-11T20:26:47.359Z,96.90
2022-12-11T20:28:51.281Z,96.91
2022-12-11T20:30:53.332Z,97.33
2022-12-11T20:32:55.478Z,96.78
2022-12-11T20:34:58.023Z,97.39
2022-12-11T20:37:00.526Z,97.50
2022-12-11T20:39:02.942Z,96.90
2022-12-11T20:41:06.302Z,97.36
2022-12-11T20:43:08.731Z,97.17
2022-12-11T20:45:11.404Z,97.07
2022-12-11T20:47:14.581Z,97.19
2022-12-11T20:49:17.000Z,96.84
2022-12-11T20:51:25.717Z,97.56
2022-12-11T20:53:28.686Z,97.12
2022-12-11T20:55:31.031Z,97.70
2022-12-11T20:57:39.328Z,97.60
2022-12-11T20:59:45.318Z,97.98
2022-12-11T21:01:47.695Z,97.35
2022-12-11T21:03:50.304Z,97.78
2022-12-11T21:05:52.787Z,97.06
2022-12-11T21:07:55.371Z,97.23
2022-12-11T21:09:57.746Z,97.75
2022-12-11T21:12:01.008Z,97.91
2022-12-11T21:14:03.373Z,97.97
2022-12-11T21:16:07.259Z,97.38
2022-12-11T21:18:09.591Z,98.09
2022-12-11T21:20:12.270Z,97.77
2022-12-11T21:22:14.747Z,98.01
2022-12-11T21:24:23.797Z,97.69
2022-12-11T21:26:26.146Z,97.92
2022-12-11T21:28:35.006Z,98.04
2022-12-11T21:30:44.329Z,97.85
2022-12-11T21:32:47.302Z,98.15
2022-12-11T21:34:51.513Z,97.69
2022-12-11T21:36:56.921Z,97.86
2022-12-11T21:38:59.950Z,97.60
2022-12-11T21:41:17.716Z,97.47
2022-12-11T21:43:20.326Z,98.19
2022-12-11T21:46:00.543Z,98.04
2022-12-11T21:47:45.221Z,97.63
2022-12-11T21:49:47.817Z,98.15
2022-12-11T21:51:50.519Z,97.87
2022-12-11T21:53:53.649Z,97.89
2022-12-11T21:55:56.129Z,97.53
2022-12-11T21:57:58.878Z,97.86
2022-12-11T22:00:01.446Z,98.04
2022-12-11T22:02:04.301Z,98.08
2022-12-11T22:04:07.401Z,98.09
2022-12-11T22:06:10.287Z,97.23
2022-12-11T22:08:12.671Z,97.35
2022-12-11T22:10:23.909Z,97.27
2022-12-11T22:12:28.239Z,97.30
2022-12-11T22:14:33.958Z,97.65
2022-12-11T22:16:36.192Z,97.73
